sensor_id;sensor_type;location;lat;lon;timestamp;pressure;altitude;pressure_sealevel;temperature;humidity
20119;BME280;10220;42.716;23.306;2023-03-15T00:02:02;94281.41;;;7.57;56.20
20119;BME280;10220;42.716;23.306;2023-03-15T00:04:27;94315.41;;;7.72;56.01
20119;BME280;10220;42.716;23.306;2023-03-15T00:06:53;94317.63;;;7.62;56.51
20119;BME280;10220;42.716;23.306;2023-03-15T00:09:19;94304.38;;;7.58;56.40
20119;BME280;10220;42.716;23.306;2023-03-15T00:11:47;94310.25;;;7.72;56.17
20119;BME280;10220;42.716;23.306;2023-03-15T00:14:13;94299.66;;;7.49;56.61
20119;BME280;10220;42.716;23.306;2023-03-15T00:16:41;94307.13;;;7.63;56.36
20119;BME280;10220;42.716;23.306;2023-03-15T00:19:08;94300.28;;;7.45;57.73
20119;BME280;10220;42.716;23.306;2023-03-15T00:21:33;94318.25;;;7.57;57.79
20119;BME280;10220;42.716;23.306;2023-03-15T00:23:59;94312.69;;;7.60;58.98
20119;BME280;10220;42.716;23.306;2023-03-15T00:26:25;94282.63;;;7.48;60.93
20119;BME280;10220;42.716;23.306;2023-03-15T00:28:58;94307.53;;;7.60;61.23
20119;BME280;10220;42.716;23.306;2023-03-15T00:31:25;94311.41;;;7.76;60.74
20119;BME280;10220;42.716;23.306;2023-03-15T00:33:51;94307.25;;;7.75;63.48
20119;BME280;10220;42.716;23.306;2023-03-15T00:36:21;94304.13;;;7.66;64.53
20119;BME280;10220;42.716;23.306;2023-03-15T00:38:51;94303.44;;;7.53;67.83
20119;BME280;10220;42.716;23.306;2023-03-15T00:41:18;94293.84;;;7.16;73.54
20119;BME280;10220;42.716;23.306;2023-03-15T00:43:45;94288.09;;;7.21;76.81
20119;BME280;10220;42.716;23.306;2023-03-15T00:46:11;94289.47;;;6.47;86.32
20119;BME280;10220;42.716;23.306;2023-03-15T00:48:39;94274.66;;;6.17;89.53
20119;BME280;10220;42.716;23.306;2023-03-15T00:51:07;94302.75;;;6.12;93.71
20119;BME280;10220;42.716;23.306;2023-03-15T00:53:34;94295.03;;;6.19;95.45
20119;BME280;10220;42.716;23.306;2023-03-15T00:56:12;94284.94;;;6.04;97.45
20119;BME280;10220;42.716;23.306;2023-03-15T00:58:39;94267.53;;;6.19;98.14
20119;BME280;10220;42.716;23.306;2023-03-15T01:01:10;94279.03;;;5.97;99.06
20119;BME280;10220;42.716;23.306;2023-03-15T01:03:36;94270.31;;;5.92;100.00
20119;BME280;10220;42.716;23.306;2023-03-15T01:06:07;94273.69;;;6.12;100.00
20119;BME280;10220;42.716;23.306;2023-03-15T01:08:33;94273.06;;;6.36;99.44
20119;BME280;10220;42.716;23.306;2023-03-15T01:11:07;94265.91;;;6.63;98.59
20119;BME280;10220;42.716;23.306;2023-03-15T01:13:36;94262.72;;;6.68;97.82
20119;BME280;10220;42.716;23.306;2023-03-15T01:16:05;94255.41;;;6.71;96.12
20119;BME280;10220;42.716;23.306;2023-03-15T01:18:31;94280.78;;;6.55;95.81
20119;BME280;10220;42.716;23.306;2023-03-15T01:20:57;94258.06;;;6.20;97.97
20119;BME280;10220;42.716;23.306;2023-03-15T01:23:22;94247.19;;;6.05;100.00
20119;BME280;10220;42.716;23.306;2023-03-15T01:25:50;94252.09;;;6.26;100.00
20119;BME280;10220;42.716;23.306;2023-03-15T01:28:19;94244.59;;;5.98;100.00
20119;BME280;10220;42.716;23.306;2023-03-15T01:30:49;94237.31;;;6.15;100.00
20119;BME280;10220;42.716;23.306;2023-03-15T01:33:17;94242.84;;;6.25;100.00
20119;BME280;10220;42.716;23.306;2023-03-15T01:35:43;94251.53;;;6.37;100.00
20119;BME280;10220;42.716;23.306;2023-03-15T01:38:09;94238.63;;;6.49;100.00
20119;BME280;10220;42.716;23.306;2023-03-15T01:40:39;94230.97;;;6.17;100.00
20119;BME280;10220;42.716;23.306;2023-03-15T01:45:53;94230.28;;;6.60;100.00
20119;BME280;10220;42.716;23.306;2023-03-15T01:48:24;94220.63;;;6.56;98.71
20119;BME280;10220;42.716;23.306;2023-03-15T01:50:52;94218.91;;;6.18;99.93
20119;BME280;10220;42.716;23.306;2023-03-15T01:53:23;94204.09;;;6.07;100.00
20119;BME280;10220;42.716;23.306;2023-03-15T01:55:50;94215.56;;;6.17;100.00
20119;BME280;10220;42.716;23.306;2023-03-15T01:58:18;94210.63;;;6.16;100.00
20119;BME280;10220;42.716;23.306;2023-03-15T02:00:45;94217.34;;;6.04;100.00
20119;BME280;10220;42.716;23.306;2023-03-15T02:03:14;94224.03;;;6.11;100.00
20119;BME280;10220;42.716;23.306;2023-03-15T02:05:51;94202.88;;;6.35;100.00
20119;BME280;10220;42.716;23.306;2023-03-15T02:08:19;94210.47;;;6.67;100.00
20119;BME280;10220;42.716;23.306;2023-03-15T02:10:51;94197.72;;;6.92;98.69
20119;BME280;10220;42.716;23.306;2023-03-15T02:13:20;94195.50;;;7.01;92.02
20119;BME280;10220;42.716;23.306;2023-03-15T02:15:50;94194.16;;;6.23;90.18
20119;BME280;10220;42.716;23.306;2023-03-15T02:18:18;94188.00;;;6.37;91.52
20119;BME280;10220;42.716;23.306;2023-03-15T02:23:27;94173.22;;;6.26;98.60
20119;BME280;10220;42.716;23.306;2023-03-15T02:28:38;94184.69;;;6.30;98.60
20119;BME280;10220;42.716;23.306;2023-03-15T02:31:04;94171.81;;;6.37;96.58
20119;BME280;10220;42.716;23.306;2023-03-15T02:33:42;94173.69;;;6.60;94.78
20119;BME280;10220;42.716;23.306;2023-03-15T02:36:22;94182.44;;;6.46;93.53
20119;BME280;10220;42.716;23.306;2023-03-15T02:38:48;94183.91;;;6.86;90.51
20119;BME280;10220;42.716;23.306;2023-03-15T02:41:18;94180.19;;;6.76;86.81
20119;BME280;10220;42.716;23.306;2023-03-15T02:43:48;94179.75;;;6.79;83.14
20119;BME280;10220;42.716;23.306;2023-03-15T02:46:15;94177.16;;;6.35;86.70
20119;BME280;10220;42.716;23.306;2023-03-15T02:48:41;94167.38;;;6.56;89.42
20119;BME280;10220;42.716;23.306;2023-03-15T02:51:15;94178.06;;;6.60;88.06
20119;BME280;10220;42.716;23.306;2023-03-15T02:53:42;94156.84;;;6.71;89.24
20119;BME280;10220;42.716;23.306;2023-03-15T02:56:08;94171.16;;;6.54;81.60
20119;BME280;10220;42.716;23.306;2023-03-15T02:58:33;94167.50;;;6.18;83.15
20119;BME280;10220;42.716;23.306;2023-03-15T03:00:59;94144.78;;;6.08;83.22
20119;BME280;10220;42.716;23.306;2023-03-15T03:03:24;94155.03;;;6.21;81.56
20119;BME280;10220;42.716;23.306;2023-03-15T03:05:50;94154.00;;;6.35;76.62
20119;BME280;10220;42.716;23.306;2023-03-15T03:08:15;94127.22;;;5.99;84.29
20119;BME280;10220;42.716;23.306;2023-03-15T03:10:41;94134.03;;;6.31;79.74
20119;BME280;10220;42.716;23.306;2023-03-15T03:13:09;94124.16;;;6.28;74.17
20119;BME280;10220;42.716;23.306;2023-03-15T03:15:35;94146.84;;;6.50;70.43
20119;BME280;10220;42.716;23.306;2023-03-15T03:18:00;94138.44;;;6.67;69.05
20119;BME280;10220;42.716;23.306;2023-03-15T03:20:35;94142.34;;;6.83;66.67
20119;BME280;10220;42.716;23.306;2023-03-15T03:23:00;94126.03;;;6.58;66.77
20119;BME280;10220;42.716;23.306;2023-03-15T03:25:30;94142.09;;;6.47;69.29
20119;BME280;10220;42.716;23.306;2023-03-15T03:27:57;94138.34;;;6.49;68.09
20119;BME280;10220;42.716;23.306;2023-03-15T03:30:23;94123.09;;;6.54;65.04
20119;BME280;10220;42.716;23.306;2023-03-15T03:32:49;94116.88;;;6.68;64.26
20119;BME280;10220;42.716;23.306;2023-03-15T03:35:15;94126.81;;;6.65;64.81
20119;BME280;10220;42.716;23.306;2023-03-15T03:37:40;94122.38;;;6.78;63.36
20119;BME280;10220;42.716;23.306;2023-03-15T03:40:06;94120.19;;;6.82;63.25
20119;BME280;10220;42.716;23.306;2023-03-15T03:42:34;94111.28;;;6.78;64.11
20119;BME280;10220;42.716;23.306;2023-03-15T03:45:07;94064.53;;;6.50;65.18
20119;BME280;10220;42.716;23.306;2023-03-15T03:47:33;94110.44;;;7.21;66.03
20119;BME280;10220;42.716;23.306;2023-03-15T03:49:58;94119.19;;;7.13;66.98
20119;BME280;10220;42.716;23.306;2023-03-15T03:52:23;94130.06;;;7.15;65.67
20119;BME280;10220;42.716;23.306;2023-03-15T03:54:49;94127.34;;;7.10;64.61
20119;BME280;10220;42.716;23.306;2023-03-15T03:57:16;94110.91;;;7.05;63.22
20119;BME280;10220;42.716;23.306;2023-03-15T03:59:44;94105.25;;;6.97;64.08
20119;BME280;10220;42.716;23.306;2023-03-15T04:02:09;94090.69;;;7.08;62.90
20119;BME280;10220;42.716;23.306;2023-03-15T04:04:35;94098.47;;;7.02;63.58
20119;BME280;10220;42.716;23.306;2023-03-15T04:07:00;94088.22;;;6.96;64.46
20119;BME280;10220;42.716;23.306;2023-03-15T04:09:26;94101.19;;;7.13;63.87
20119;BME280;10220;42.716;23.306;2023-03-15T04:11:51;94111.84;;;7.17;62.81
20119;BME280;10220;42.716;23.306;2023-03-15T04:14:17;94078.13;;;6.94;64.06
20119;BME280;10220;42.716;23.306;2023-03-15T04:16:42;94103.56;;;7.08;64.36
20119;BME280;10220;42.716;23.306;2023-03-15T04:19:10;94081.34;;;7.14;63.63
20119;BME280;10220;42.716;23.306;2023-03-15T04:21:37;94098.09;;;7.29;62.57
20119;BME280;10220;42.716;23.306;2023-03-15T04:24:02;94096.69;;;7.02;63.26
20119;BME280;10220;42.716;23.306;2023-03-15T04:26:28;94083.78;;;7.09;62.84
20119;BME280;10220;42.716;23.306;2023-03-15T04:28:56;94082.72;;;6.92;62.77
20119;BME280;10220;42.716;23.306;2023-03-15T04:31:22;94095.38;;;6.94;64.60
20119;BME280;10220;42.716;23.306;2023-03-15T04:33:55;94089.97;;;7.01;63.51
20119;BME280;10220;42.716;23.306;2023-03-15T04:36:23;94082.81;;;7.03;62.86
20119;BME280;10220;42.716;23.306;2023-03-15T04:38:49;94078.91;;;7.25;62.73
20119;BME280;10220;42.716;23.306;2023-03-15T04:41:17;94072.72;;;7.02;62.60
20119;BME280;10220;42.716;23.306;2023-03-15T04:43:43;94088.78;;;7.04;63.85
20119;BME280;10220;42.716;23.306;2023-03-15T04:46:09;94083.72;;;7.15;67.27
20119;BME280;10220;42.716;23.306;2023-03-15T04:48:35;94094.19;;;7.20;65.92
20119;BME280;10220;42.716;23.306;2023-03-15T04:51:00;94087.84;;;7.23;69.07
20119;BME280;10220;42.716;23.306;2023-03-15T04:53:26;94093.25;;;6.78;70.29
20119;BME280;10220;42.716;23.306;2023-03-15T04:55:52;94065.81;;;6.72;68.69
20119;BME280;10220;42.716;23.306;2023-03-15T04:58:18;94088.38;;;7.00;67.07
20119;BME280;10220;42.716;23.306;2023-03-15T05:00:44;94083.91;;;6.90;67.91
20119;BME280;10220;42.716;23.306;2023-03-15T05:03:39;94040.66;;;6.74;66.77
20119;BME280;10220;42.716;23.306;2023-03-15T05:06:18;94061.69;;;6.64;66.73
20119;BME280;10220;42.716;23.306;2023-03-15T05:08:44;94070.38;;;6.63;67.46
20119;BME280;10220;42.716;23.306;2023-03-15T05:11:11;94086.91;;;6.49;69.04
20119;BME280;10220;42.716;23.306;2023-03-15T05:13:36;94084.97;;;6.32;70.56
20119;BME280;10220;42.716;23.306;2023-03-15T05:16:02;94093.38;;;6.58;69.55
20119;BME280;10220;42.716;23.306;2023-03-15T05:18:28;94079.78;;;6.82;68.61
20119;BME280;10220;42.716;23.306;2023-03-15T05:20:53;94080.44;;;7.02;68.13
20119;BME280;10220;42.716;23.306;2023-03-15T05:23:22;94092.63;;;7.44;66.28
20119;BME280;10220;42.716;23.306;2023-03-15T05:25:50;94089.59;;;7.53;64.09
20119;BME280;10220;42.716;23.306;2023-03-15T05:28:22;94071.22;;;7.43;61.72
20119;BME280;10220;42.716;23.306;2023-03-15T05:30:48;94089.75;;;7.34;62.64
20119;BME280;10220;42.716;23.306;2023-03-15T05:33:14;94075.22;;;7.15;63.28
20119;BME280;10220;42.716;23.306;2023-03-15T05:35:39;94075.94;;;7.22;63.63
20119;BME280;10220;42.716;23.306;2023-03-15T05:38:04;94060.38;;;7.17;64.98
20119;BME280;10220;42.716;23.306;2023-03-15T05:40:30;94063.81;;;7.29;64.26
20119;BME280;10220;42.716;23.306;2023-03-15T05:43:00;94071.81;;;7.21;64.64
20119;BME280;10220;42.716;23.306;2023-03-15T05:45:25;94080.00;;;7.36;64.78
20119;BME280;10220;42.716;23.306;2023-03-15T05:47:53;94076.38;;;7.43;64.45
20119;BME280;10220;42.716;23.306;2023-03-15T05:50:18;94075.44;;;7.38;63.39
20119;BME280;10220;42.716;23.306;2023-03-15T05:52:44;94072.06;;;7.37;60.49
20119;BME280;10220;42.716;23.306;2023-03-15T05:55:09;94067.31;;;7.10;61.38
20119;BME280;10220;42.716;23.306;2023-03-15T05:57:38;94071.28;;;6.82;62.34
20119;BME280;10220;42.716;23.306;2023-03-15T06:00:04;94058.47;;;6.75;62.49
20119;BME280;10220;42.716;23.306;2023-03-15T06:02:30;94060.38;;;6.86;61.74
20119;BME280;10220;42.716;23.306;2023-03-15T06:04:56;94048.13;;;6.82;62.86
20119;BME280;10220;42.716;23.306;2023-03-15T06:07:21;94074.78;;;7.18;61.19
20119;BME280;10220;42.716;23.306;2023-03-15T06:09:49;94072.81;;;7.20;60.79
20119;BME280;10220;42.716;23.306;2023-03-15T06:12:16;94072.44;;;7.41;60.11
20119;BME280;10220;42.716;23.306;2023-03-15T06:14:41;94070.81;;;7.46;61.17
20119;BME280;10220;42.716;23.306;2023-03-15T06:17:07;94076.50;;;7.55;61.80
20119;BME280;10220;42.716;23.306;2023-03-15T06:19:33;94064.78;;;7.76;61.21
20119;BME280;10220;42.716;23.306;2023-03-15T06:21:58;94076.38;;;7.85;60.90
20119;BME280;10220;42.716;23.306;2023-03-15T06:24:26;94086.97;;;7.77;60.56
20119;BME280;10220;42.716;23.306;2023-03-15T06:26:51;94094.91;;;7.76;61.03
20119;BME280;10220;42.716;23.306;2023-03-15T06:29:19;94100.13;;;7.45;61.97
20119;BME280;10220;42.716;23.306;2023-03-15T06:31:46;94091.09;;;7.60;63.44
20119;BME280;10220;42.716;23.306;2023-03-15T06:34:13;94063.19;;;7.57;62.62
20119;BME280;10220;42.716;23.306;2023-03-15T06:36:39;94079.78;;;7.61;62.66
20119;BME280;10220;42.716;23.306;2023-03-15T06:39:07;94072.81;;;7.44;64.42
20119;BME280;10220;42.716;23.306;2023-03-15T06:41:34;94065.78;;;7.75;64.94
20119;BME280;10220;42.716;23.306;2023-03-15T06:44:00;94048.06;;;8.21;62.85
20119;BME280;10220;42.716;23.306;2023-03-15T06:46:25;94047.94;;;8.34;61.61
20119;BME280;10220;42.716;23.306;2023-03-15T06:48:51;94060.97;;;8.39;59.64
20119;BME280;10220;42.716;23.306;2023-03-15T06:51:16;94044.06;;;8.54;59.65
20119;BME280;10220;42.716;23.306;2023-03-15T06:53:42;94047.72;;;8.65;58.05
20119;BME280;10220;42.716;23.306;2023-03-15T06:56:07;94055.75;;;8.57;58.93
20119;BME280;10220;42.716;23.306;2023-03-15T06:58:33;94061.81;;;8.51;60.14
20119;BME280;10220;42.716;23.306;2023-03-15T07:00:59;94064.69;;;9.01;57.77
20119;BME280;10220;42.716;23.306;2023-03-15T07:03:24;94060.56;;;9.12;56.67
20119;BME280;10220;42.716;23.306;2023-03-15T07:05:50;94053.41;;;9.25;56.19
20119;BME280;10220;42.716;23.306;2023-03-15T07:08:18;94051.41;;;9.50;56.56
20119;BME280;10220;42.716;23.306;2023-03-15T07:10:44;94056.44;;;9.45;55.78
20119;BME280;10220;42.716;23.306;2023-03-15T07:13:10;94062.09;;;9.65;54.90
20119;BME280;10220;42.716;23.306;2023-03-15T07:15:36;94050.31;;;9.69;55.19
20119;BME280;10220;42.716;23.306;2023-03-15T07:18:01;94045.44;;;10.18;53.78
20119;BME280;10220;42.716;23.306;2023-03-15T07:20:27;94039.38;;;10.01;53.90
20119;BME280;10220;42.716;23.306;2023-03-15T07:22:52;94020.16;;;9.74;53.63
20119;BME280;10220;42.716;23.306;2023-03-15T07:25:18;94044.75;;;10.34;54.19
20119;BME280;10220;42.716;23.306;2023-03-15T07:27:49;94034.22;;;10.01;53.76
20119;BME280;10220;42.716;23.306;2023-03-15T07:30:16;94062.47;;;10.02;53.96
20119;BME280;10220;42.716;23.306;2023-03-15T07:32:41;94037.72;;;10.06;53.04
20119;BME280;10220;42.716;23.306;2023-03-15T07:35:07;94043.31;;;10.03;53.41
20119;BME280;10220;42.716;23.306;2023-03-15T07:37:33;94033.53;;;10.56;54.15
20119;BME280;10220;42.716;23.306;2023-03-15T07:39:58;94034.94;;;10.36;52.74
20119;BME280;10220;42.716;23.306;2023-03-15T07:42:25;94040.72;;;10.15;52.80
20119;BME280;10220;42.716;23.306;2023-03-15T07:44:50;94047.97;;;10.41;52.38
20119;BME280;10220;42.716;23.306;2023-03-15T07:47:16;94036.50;;;10.37;52.85
20119;BME280;10220;42.716;23.306;2023-03-15T07:49:41;94033.22;;;10.41;51.82
20119;BME280;10220;42.716;23.306;2023-03-15T07:52:07;94029.34;;;10.27;52.96
20119;BME280;10220;42.716;23.306;2023-03-15T07:54:33;94034.78;;;10.53;52.77
20119;BME280;10220;42.716;23.306;2023-03-15T07:56:58;94033.25;;;10.97;52.21
20119;BME280;10220;42.716;23.306;2023-03-15T07:59:24;94028.00;;;11.08;50.94
20119;BME280;10220;42.716;23.306;2023-03-15T08:01:50;94026.28;;;11.13;50.92
20119;BME280;10220;42.716;23.306;2023-03-15T08:04:15;94025.19;;;11.26;49.96
20119;BME280;10220;42.716;23.306;2023-03-15T08:06:41;94020.09;;;10.87;51.21
20119;BME280;10220;42.716;23.306;2023-03-15T08:14:16;94014.34;;;11.45;49.06
20119;BME280;10220;42.716;23.306;2023-03-15T08:16:42;94019.75;;;11.11;50.28
20119;BME280;10220;42.716;23.306;2023-03-15T08:19:07;94002.72;;;11.31;50.39
20119;BME280;10220;42.716;23.306;2023-03-15T08:21:33;94000.84;;;11.11;50.84
20119;BME280;10220;42.716;23.306;2023-03-15T08:23:59;94002.25;;;11.18;50.46
20119;BME280;10220;42.716;23.306;2023-03-15T08:26:25;94003.44;;;11.43;50.47
20119;BME280;10220;42.716;23.306;2023-03-15T08:28:50;93982.81;;;10.88;50.85
20119;BME280;10220;42.716;23.306;2023-03-15T08:31:16;93980.88;;;11.27;50.28
20119;BME280;10220;42.716;23.306;2023-03-15T08:33:42;94000.63;;;11.61;50.10
20119;BME280;10220;42.716;23.306;2023-03-15T08:36:07;93984.78;;;11.46;50.33
20119;BME280;10220;42.716;23.306;2023-03-15T08:38:33;93978.47;;;11.54;50.28
20119;BME280;10220;42.716;23.306;2023-03-15T08:40:59;93995.28;;;11.35;49.77
20119;BME280;10220;42.716;23.306;2023-03-15T08:43:25;93991.41;;;11.21;50.21
20119;BME280;10220;42.716;23.306;2023-03-15T08:45:50;93988.88;;;11.75;49.67
20119;BME280;10220;42.716;23.306;2023-03-15T08:48:16;93978.59;;;12.01;48.67
20119;BME280;10220;42.716;23.306;2023-03-15T08:50:42;93979.19;;;12.08;49.16
20119;BME280;10220;42.716;23.306;2023-03-15T08:53:08;93957.81;;;11.80;49.26
20119;BME280;10220;42.716;23.306;2023-03-15T08:55:35;93988.13;;;12.17;48.85
20119;BME280;10220;42.716;23.306;2023-03-15T08:58:01;93990.06;;;12.48;48.54
20119;BME280;10220;42.716;23.306;2023-03-15T09:00:27;93985.03;;;12.63;48.23
20119;BME280;10220;42.716;23.306;2023-03-15T09:02:53;93987.47;;;12.27;47.96
20119;BME280;10220;42.716;23.306;2023-03-15T09:05:21;93983.31;;;12.47;48.66
20119;BME280;10220;42.716;23.306;2023-03-15T09:07:47;93977.78;;;12.65;48.34
20119;BME280;10220;42.716;23.306;2023-03-15T09:10:16;93965.59;;;12.91;47.79
20119;BME280;10220;42.716;23.306;2023-03-15T09:12:42;93974.22;;;13.28;47.25
20119;BME280;10220;42.716;23.306;2023-03-15T09:15:09;93976.34;;;13.00;47.20
20119;BME280;10220;42.716;23.306;2023-03-15T09:17:35;93981.81;;;13.03;47.40
20119;BME280;10220;42.716;23.306;2023-03-15T09:20:01;93985.22;;;13.04;47.57
20119;BME280;10220;42.716;23.306;2023-03-15T09:22:32;93972.88;;;12.68;47.34
20119;BME280;10220;42.716;23.306;2023-03-15T09:24:57;93984.50;;;12.39;48.16
20119;BME280;10220;42.716;23.306;2023-03-15T09:27:23;93968.66;;;11.77;49.33
20119;BME280;10220;42.716;23.306;2023-03-15T09:29:48;93988.31;;;11.89;49.87
20119;BME280;10220;42.716;23.306;2023-03-15T09:32:13;93954.06;;;11.71;49.93
20119;BME280;10220;42.716;23.306;2023-03-15T09:34:39;93981.66;;;12.41;49.39
20119;BME280;10220;42.716;23.306;2023-03-15T09:37:05;93964.41;;;12.09;49.87
20119;BME280;10220;42.716;23.306;2023-03-15T09:39:31;93957.69;;;12.13;49.96
20119;BME280;10220;42.716;23.306;2023-03-15T09:41:59;93965.31;;;11.98;49.70
20119;BME280;10220;42.716;23.306;2023-03-15T09:44:47;93957.75;;;12.18;50.09
20119;BME280;10220;42.716;23.306;2023-03-15T09:47:36;93949.38;;;12.11;49.88
20119;BME280;10220;42.716;23.306;2023-03-15T09:52:49;93972.91;;;11.83;50.30
20119;BME280;10220;42.716;23.306;2023-03-15T09:55:22;93922.66;;;11.51;51.17
20119;BME280;10220;42.716;23.306;2023-03-15T09:57:55;93949.09;;;11.70;51.17
20119;BME280;10220;42.716;23.306;2023-03-15T10:00:48;93955.28;;;11.85;51.50
20119;BME280;10220;42.716;23.306;2023-03-15T10:03:44;93975.44;;;11.99;50.82
20119;BME280;10220;42.716;23.306;2023-03-15T10:06:30;93952.25;;;11.93;50.65
20119;BME280;10220;42.716;23.306;2023-03-15T10:09:02;93961.50;;;11.84;50.99
20119;BME280;10220;42.716;23.306;2023-03-15T10:11:33;93962.22;;;12.01;51.67
20119;BME280;10220;42.716;23.306;2023-03-15T10:14:08;93966.88;;;11.99;50.32
20119;BME280;10220;42.716;23.306;2023-03-15T10:16:42;93954.72;;;11.45;51.51
20119;BME280;10220;42.716;23.306;2023-03-15T10:19:16;93968.13;;;11.75;50.81
20119;BME280;10220;42.716;23.306;2023-03-15T10:25:30;93955.13;;;11.75;51.04
20119;BME280;10220;42.716;23.306;2023-03-15T10:27:40;93969.91;;;11.91;50.52
20119;BME280;10220;42.716;23.306;2023-03-15T10:30:20;93955.31;;;12.06;50.94
20119;BME280;10220;42.716;23.306;2023-03-15T10:32:51;93943.16;;;12.12;50.84
20119;BME280;10220;42.716;23.306;2023-03-15T10:35:19;93948.41;;;11.95;50.48
20119;BME280;10220;42.716;23.306;2023-03-15T10:37:47;93936.53;;;12.21;50.30
20119;BME280;10220;42.716;23.306;2023-03-15T10:40:13;93953.06;;;12.15;50.64
20119;BME280;10220;42.716;23.306;2023-03-15T10:42:44;93941.13;;;11.92;50.46
20119;BME280;10220;42.716;23.306;2023-03-15T10:45:22;93953.91;;;11.99;49.96
20119;BME280;10220;42.716;23.306;2023-03-15T10:47:48;93937.63;;;12.29;49.89
20119;BME280;10220;42.716;23.306;2023-03-15T10:50:26;93950.34;;;12.26;49.94
20119;BME280;10220;42.716;23.306;2023-03-15T10:52:57;93938.09;;;12.00;49.98
20119;BME280;10220;42.716;23.306;2023-03-15T10:55:40;93936.69;;;11.93;50.44
20119;BME280;10220;42.716;23.306;2023-03-15T11:00:49;93950.22;;;12.16;50.42
20119;BME280;10220;42.716;23.306;2023-03-15T11:05:45;93944.44;;;12.09;50.24
20119;BME280;10220;42.716;23.306;2023-03-15T11:08:17;93945.84;;;12.17;50.16
20119;BME280;10220;42.716;23.306;2023-03-15T11:10:44;93939.97;;;12.26;50.22
20119;BME280;10220;42.716;23.306;2023-03-15T11:15:37;93936.94;;;12.34;49.84
20119;BME280;10220;42.716;23.306;2023-03-15T11:18:03;93936.75;;;12.40;49.61
20119;BME280;10220;42.716;23.306;2023-03-15T11:20:31;93936.56;;;12.47;50.06
20119;BME280;10220;42.716;23.306;2023-03-15T11:23:13;93922.38;;;12.59;49.98
20119;BME280;10220;42.716;23.306;2023-03-15T11:25:39;93925.84;;;12.70;49.03
20119;BME280;10220;42.716;23.306;2023-03-15T11:28:04;93919.78;;;12.33;49.76
20119;BME280;10220;42.716;23.306;2023-03-15T11:30:30;93939.84;;;12.64;49.36
20119;BME280;10220;42.716;23.306;2023-03-15T11:33:04;93924.94;;;12.54;49.33
20119;BME280;10220;42.716;23.306;2023-03-15T11:35:42;93929.63;;;12.31;50.07
20119;BME280;10220;42.716;23.306;2023-03-15T11:38:38;93924.88;;;12.49;49.51
20119;BME280;10220;42.716;23.306;2023-03-15T11:41:08;93902.19;;;12.66;50.24
20119;BME280;10220;42.716;23.306;2023-03-15T11:46:25;93917.19;;;13.17;52.42
20119;BME280;10220;42.716;23.306;2023-03-15T11:51:27;93933.19;;;13.35;50.85
20119;BME280;10220;42.716;23.306;2023-03-15T11:54:14;93921.44;;;13.28;48.63
20119;BME280;10220;42.716;23.306;2023-03-15T11:56:47;93913.16;;;12.73;52.04
20119;BME280;10220;42.716;23.306;2023-03-15T11:59:17;93912.69;;;12.50;56.39
20119;BME280;10220;42.716;23.306;2023-03-15T12:04:46;93913.44;;;12.50;61.77
20119;BME280;10220;42.716;23.306;2023-03-15T12:09:52;93915.50;;;11.42;70.91
20119;BME280;10220;42.716;23.306;2023-03-15T12:20:16;93906.69;;;11.05;83.05
20119;BME280;10220;42.716;23.306;2023-03-15T12:22:48;93908.03;;;11.08;83.00
20119;BME280;10220;42.716;23.306;2023-03-15T12:25:20;93893.25;;;11.08;84.68
20119;BME280;10220;42.716;23.306;2023-03-15T12:27:49;93900.41;;;11.01;84.36
20119;BME280;10220;42.716;23.306;2023-03-15T12:32:55;93905.56;;;11.17;81.82
20119;BME280;10220;42.716;23.306;2023-03-15T12:35:23;93902.31;;;11.27;81.35
20119;BME280;10220;42.716;23.306;2023-03-15T12:37:53;93891.19;;;11.26;81.60
20119;BME280;10220;42.716;23.306;2023-03-15T12:53:56;93892.06;;;10.99;82.28
20119;BME280;10220;42.716;23.306;2023-03-15T12:59:42;93887.09;;;11.30;76.40
20119;BME280;10220;42.716;23.306;2023-03-15T13:14:23;93873.47;;;11.56;68.59
20119;BME280;10220;42.716;23.306;2023-03-15T13:16:46;93858.25;;;11.65;66.41
20119;BME280;10220;42.716;23.306;2023-03-15T13:25:12;93880.28;;;11.83;64.62
20119;BME280;10220;42.716;23.306;2023-03-15T13:27:46;93870.31;;;12.23;63.58
20119;BME280;10220;42.716;23.306;2023-03-15T13:33:13;93886.31;;;11.89;63.64
20119;BME280;10220;42.716;23.306;2023-03-15T13:35:47;93881.34;;;12.09;62.34
20119;BME280;10220;42.716;23.306;2023-03-15T13:40:49;93880.97;;;12.22;61.86
20119;BME280;10220;42.716;23.306;2023-03-15T13:43:15;93865.47;;;12.05;61.63
20119;BME280;10220;42.716;23.306;2023-03-15T13:45:44;93884.44;;;12.32;59.79
20119;BME280;10220;42.716;23.306;2023-03-15T13:48:10;93886.31;;;12.36;60.07
20119;BME280;10220;42.716;23.306;2023-03-15T13:50:36;93878.47;;;12.31;61.39
20119;BME280;10220;42.716;23.306;2023-03-15T13:53:02;93881.84;;;12.32;60.74
20119;BME280;10220;42.716;23.306;2023-03-15T13:55:32;93880.31;;;12.36;61.06
20119;BME280;10220;42.716;23.306;2023-03-15T13:58:03;93877.44;;;12.32;60.09
20119;BME280;10220;42.716;23.306;2023-03-15T14:00:32;93886.44;;;11.99;61.48
20119;BME280;10220;42.716;23.306;2023-03-15T14:03:01;93892.06;;;11.91;62.96
20119;BME280;10220;42.716;23.306;2023-03-15T14:05:31;93889.50;;;12.17;62.99
20119;BME280;10220;42.716;23.306;2023-03-15T14:08:16;93894.03;;;11.84;65.31
20119;BME280;10220;42.716;23.306;2023-03-15T14:11:05;93892.06;;;11.91;66.87
20119;BME280;10220;42.716;23.306;2023-03-15T14:13:56;93881.78;;;11.79;70.24
20119;BME280;10220;42.716;23.306;2023-03-15T14:16:44;93887.06;;;11.47;74.12
20119;BME280;10220;42.716;23.306;2023-03-15T14:19:18;93894.72;;;11.20;77.35
20119;BME280;10220;42.716;23.306;2023-03-15T14:21:56;93897.25;;;11.15;79.17
20119;BME280;10220;42.716;23.306;2023-03-15T14:24:28;93889.75;;;11.52;78.85
20119;BME280;10220;42.716;23.306;2023-03-15T14:26:59;93889.81;;;11.40;80.02
20119;BME280;10220;42.716;23.306;2023-03-15T14:29:36;93880.28;;;11.46;80.36
20119;BME280;10220;42.716;23.306;2023-03-15T14:32:07;93889.09;;;11.61;80.36